Time;durP1;ratioP1;P1;durP2;ratioP2;P2;SDS_P1;SDS_P2;PMS_P1;PMS_P2;Temp;Humidity;BMP_temperature;BMP_pressure;BME280_temperature;BME280_humidity;BME280_pressure;Samples;Min_cycle;Max_cycle;Signal;HPM_P1;HPM_P2
2021/03/23 00:01:09;;;;;;;1.60;0.80;;;23.80;29.00;;;;;;5010708;28;20408;-63
2021/03/23 00:03:44;;;;;;;1.48;0.90;;;23.80;29.10;;;;;;5012002;28;20405;-63
2021/03/23 00:06:12;;;;;;;2.25;0.90;;;23.80;28.90;;;;;;5011873;28;20385;-63
2021/03/23 00:08:44;;;;;;;1.80;0.90;;;23.70;28.90;;;;;;5011418;28;20400;-63
2021/03/23 00:11:17;;;;;;;2.20;0.90;;;23.70;29.00;;;;;;5011752;28;20393;-62
2021/03/23 00:13:45;;;;;;;1.80;0.83;;;23.70;29.00;;;;;;5012147;28;20833;-63
2021/03/23 00:16:12;;;;;;;2.60;0.95;;;23.70;29.10;;;;;;5011967;28;20384;-63
2021/03/23 00:18:39;;;;;;;2.67;1.10;;;23.70;29.00;;;;;;5011340;28;20400;-63
2021/03/23 00:21:05;;;;;;;2.20;1.00;;;23.70;29.00;;;;;;5011582;28;20388;-63
2021/03/23 00:23:31;;;;;;;2.30;1.00;;;23.70;29.10;;;;;;5011737;28;20404;-63
2021/03/23 00:25:57;;;;;;;1.63;0.83;;;23.70;29.10;;;;;;5011588;28;20389;-63
2021/03/23 00:28:24;;;;;;;2.45;1.00;;;23.60;29.10;;;;;;5011139;28;20400;-63
2021/03/23 00:30:52;;;;;;;2.60;1.02;;;23.60;29.10;;;;;;5011495;28;20408;-63
2021/03/23 00:33:17;;;;;;;2.50;0.90;;;23.60;29.00;;;;;;5011389;28;20416;-64
2021/03/23 00:35:43;;;;;;;1.70;1.00;;;23.60;29.10;;;;;;5011542;28;20393;-64
2021/03/23 00:38:10;;;;;;;2.17;0.98;;;23.60;29.10;;;;;;5011526;28;20421;-64
2021/03/23 00:40:37;;;;;;;1.58;0.90;;;23.50;29.10;;;;;;5011244;28;20400;-63
2021/03/23 00:43:04;;;;;;;2.10;0.98;;;23.50;29.10;;;;;;5011288;28;20421;-63
2021/03/23 00:45:30;;;;;;;1.92;0.90;;;23.50;29.10;;;;;;5011494;28;20396;-64
2021/03/23 00:47:56;;;;;;;1.90;0.90;;;23.50;29.00;;;;;;5011461;28;20396;-63
2021/03/23 00:50:22;;;;;;;2.33;0.93;;;23.50;29.10;;;;;;5011231;28;20381;-63
2021/03/23 00:52:48;;;;;;;1.65;0.88;;;23.40;29.20;;;;;;5011438;28;20476;-64
2021/03/23 00:55:14;;;;;;;1.70;0.90;;;23.40;29.00;;;;;;5012313;28;20436;-63
2021/03/23 00:57:40;;;;;;;1.90;0.80;;;23.40;29.00;;;;;;5015266;28;20947;-63
2021/03/23 01:00:09;;;;;;;1.97;0.87;;;23.40;29.10;;;;;;5015170;28;20384;-63
2021/03/23 01:02:34;;;;;;;2.33;0.90;;;23.40;29.20;;;;;;5014647;28;20819;-63
2021/03/23 01:05:00;;;;;;;1.65;1.00;;;23.30;29.10;;;;;;5015131;28;20405;-63
2021/03/23 01:07:26;;;;;;;1.90;0.90;;;23.30;29.20;;;;;;5015093;28;20392;-63
2021/03/23 01:09:52;;;;;;;1.90;1.00;;;23.30;29.20;;;;;;5015006;28;20404;-62
2021/03/23 01:12:18;;;;;;;2.20;0.90;;;23.30;29.20;;;;;;5014712;28;20396;-62
2021/03/23 01:14:44;;;;;;;1.90;0.90;;;23.30;29.20;;;;;;5014681;28;20393;-63
2021/03/23 01:17:10;;;;;;;1.92;0.90;;;23.30;29.20;;;;;;5014348;28;20396;-63
2021/03/23 01:19:36;;;;;;;1.53;0.80;;;23.20;29.20;;;;;;5014440;28;20388;-63
2021/03/23 01:22:02;;;;;;;1.63;0.90;;;23.20;29.20;;;;;;5014800;28;20503;-63
2021/03/23 01:24:30;;;;;;;2.00;0.90;;;23.20;29.10;;;;;;5014236;28;20381;-63
2021/03/23 01:26:55;;;;;;;2.00;0.90;;;23.20;29.20;;;;;;5014576;28;20771;-63
2021/03/23 01:29:21;;;;;;;2.10;1.00;;;23.20;29.20;;;;;;5014803;28;20389;-63
2021/03/23 01:31:47;;;;;;;2.23;0.90;;;23.20;29.30;;;;;;5014485;28;20753;-63
2021/03/23 01:34:13;;;;;;;1.73;0.90;;;23.10;29.20;;;;;;5014303;28;20400;-63
2021/03/23 01:36:38;;;;;;;1.80;0.90;;;23.10;29.20;;;;;;5012823;28;20389;-63
2021/03/23 01:39:05;;;;;;;2.13;1.00;;;23.10;29.20;;;;;;5014140;28;20397;-64
2021/03/23 01:41:31;;;;;;;2.40;0.90;;;23.10;29.20;;;;;;5014427;28;20463;-63
2021/03/23 01:43:57;;;;;;;1.60;0.80;;;23.10;29.20;;;;;;5014315;28;20443;-63
2021/03/23 01:46:40;;;;;;;2.15;1.20;;;23.10;29.20;;;;;;5014164;28;20425;-63
2021/03/23 01:49:22;;;;;;;2.00;0.80;;;23.00;29.20;;;;;;5013897;28;20541;-63
2021/03/23 01:51:53;;;;;;;1.25;0.85;;;23.00;29.20;;;;;;5013954;28;20474;-63
2021/03/23 01:54:23;;;;;;;1.90;1.00;;;23.00;29.20;;;;;;5013921;28;21020;-61
2021/03/23 01:56:52;;;;;;;1.60;0.90;;;23.00;29.20;;;;;;5013996;28;20388;-64
2021/03/23 01:59:19;;;;;;;1.60;0.90;;;22.90;29.20;;;;;;5013932;28;20397;-64
2021/03/23 02:01:45;;;;;;;1.65;0.90;;;22.90;29.20;;;;;;5014049;28;21070;-63
2021/03/23 02:04:12;;;;;;;1.88;0.90;;;22.90;29.30;;;;;;5013935;28;20385;-63
2021/03/23 02:06:39;;;;;;;1.80;1.00;;;22.90;29.30;;;;;;5012491;28;20390;-63
2021/03/23 02:09:10;;;;;;;1.58;0.93;;;22.90;29.10;;;;;;5014063;28;20745;-63
2021/03/23 02:11:43;;;;;;;1.52;0.90;;;22.80;29.70;;;;;;5013996;28;20397;-64
2021/03/23 02:14:09;;;;;;;2.33;1.00;;;22.80;29.30;;;;;;5013440;28;20444;-64
2021/03/23 02:16:35;;;;;;;1.73;1.02;;;22.80;29.30;;;;;;5013181;28;20753;-63
2021/03/23 02:19:01;;;;;;;1.47;0.77;;;22.80;29.20;;;;;;5013723;28;20439;-63
2021/03/23 02:21:26;;;;;;;1.85;0.90;;;22.80;29.30;;;;;;5013601;28;20451;-63
2021/03/23 02:23:54;;;;;;;1.63;0.90;;;22.80;29.30;;;;;;5013738;28;20396;-63
2021/03/23 02:26:25;;;;;;;2.15;1.10;;;22.80;29.30;;;;;;5013655;28;20389;-63
2021/03/23 02:28:57;;;;;;;1.43;0.83;;;22.70;29.20;;;;;;5013336;28;20400;-64
2021/03/23 02:31:31;;;;;;;2.17;0.90;;;22.70;29.30;;;;;;5013251;28;20812;-63
2021/03/23 02:33:57;;;;;;;2.00;1.15;;;22.70;29.30;;;;;;5013477;28;20401;-63
2021/03/23 02:36:24;;;;;;;1.95;0.90;;;22.70;29.80;;;;;;5013126;28;20385;-63
2021/03/23 02:38:50;;;;;;;1.90;1.00;;;22.70;29.40;;;;;;5013295;28;20904;-64
2021/03/23 02:41:17;;;;;;;1.58;0.85;;;22.70;29.30;;;;;;5013241;28;20417;-63
2021/03/23 02:43:42;;;;;;;1.90;1.10;;;22.70;29.40;;;;;;5013342;28;20405;-63
2021/03/23 02:46:08;;;;;;;1.67;0.80;;;22.60;29.40;;;;;;5013104;28;20815;-63
2021/03/23 02:48:34;;;;;;;2.00;1.00;;;22.60;29.30;;;;;;5012685;28;20392;-63
2021/03/23 02:51:00;;;;;;;2.10;0.90;;;22.60;29.30;;;;;;5013164;28;20396;-63
2021/03/23 02:53:26;;;;;;;1.77;1.10;;;22.60;29.40;;;;;;5013024;28;20385;-63
2021/03/23 02:55:52;;;;;;;1.90;1.00;;;22.60;29.40;;;;;;5013122;28;20474;-63
2021/03/23 02:58:18;;;;;;;2.30;1.00;;;22.50;29.40;;;;;;5012968;28;20392;-63
2021/03/23 03:00:43;;;;;;;1.98;1.10;;;22.50;29.40;;;;;;5012497;28;20395;-62
2021/03/23 03:03:09;;;;;;;2.00;1.00;;;22.50;29.40;;;;;;5012752;28;20427;-63
2021/03/23 03:05:35;;;;;;;1.80;0.80;;;22.50;29.40;;;;;;5012896;28;20388;-62
2021/03/23 03:08:01;;;;;;;2.35;1.08;;;22.50;29.50;;;;;;5012801;28;20912;-62
2021/03/23 03:10:26;;;;;;;1.73;1.00;;;22.50;29.50;;;;;;5012555;28;20385;-63
2021/03/23 03:12:53;;;;;;;1.73;1.13;;;22.40;29.40;;;;;;5012573;28;20389;-62
2021/03/23 03:15:19;;;;;;;1.73;0.90;;;22.40;29.50;;;;;;5012766;28;20384;-63
2021/03/23 03:17:45;;;;;;;1.73;0.90;;;22.40;29.50;;;;;;5012509;28;20397;-63
2021/03/23 03:20:13;;;;;;;1.50;0.90;;;22.40;29.50;;;;;;5012147;28;20468;-63
2021/03/23 03:22:38;;;;;;;1.90;0.82;;;22.40;29.50;;;;;;5010238;28;20433;-63
2021/03/23 03:25:05;;;;;;;2.03;0.90;;;22.40;29.50;;;;;;5012240;28;20397;-62
2021/03/23 03:27:31;;;;;;;1.58;0.90;;;22.40;29.50;;;;;;5012529;28;20389;-63
2021/03/23 03:29:57;;;;;;;1.60;0.80;;;22.30;29.50;;;;;;5012500;28;20888;-63
2021/03/23 03:32:22;;;;;;;1.42;0.80;;;22.30;29.40;;;;;;5012135;28;20420;-63
2021/03/23 03:34:48;;;;;;;1.90;1.00;;;22.30;29.40;;;;;;5011920;28;20389;-63
2021/03/23 03:37:14;;;;;;;1.70;0.90;;;22.30;29.50;;;;;;5011597;28;20399;-63
2021/03/23 03:39:39;;;;;;;2.05;1.10;;;22.30;29.50;;;;;;5010983;28;20975;-63
2021/03/23 03:42:06;;;;;;;1.60;0.90;;;22.30;29.50;;;;;;5011936;28;20425;-63
2021/03/23 03:44:32;;;;;;;1.65;0.90;;;22.20;29.40;;;;;;5011753;28;20396;-62
2021/03/23 03:46:57;;;;;;;1.50;0.90;;;22.20;29.40;;;;;;5012197;28;20397;-63
2021/03/23 03:49:23;;;;;;;1.63;0.82;;;22.30;29.50;;;;;;5012101;28;20392;-63
2021/03/23 03:51:48;;;;;;;1.97;0.90;;;22.20;29.50;;;;;;5012106;28;20392;-63
2021/03/23 03:54:14;;;;;;;1.20;0.80;;;22.20;29.50;;;;;;5011978;28;20735;-63
2021/03/23 03:56:40;;;;;;;1.40;0.80;;;22.20;29.50;;;;;;5011619;28;20389;-63
2021/03/23 03:59:05;;;;;;;1.70;0.90;;;22.20;29.40;;;;;;5012013;28;20391;-63
2021/03/23 04:01:31;;;;;;;1.70;0.90;;;22.10;29.50;;;;;;5011987;28;20424;-64
2021/03/23 04:03:56;;;;;;;1.90;1.00;;;22.20;29.50;;;;;;5011935;28;20401;-63
2021/03/23 04:06:22;;;;;;;1.80;0.82;;;22.20;29.60;;;;;;5011883;28;20951;-63
2021/03/23 04:08:48;;;;;;;2.30;0.98;;;22.10;29.50;;;;;;5011277;28;20492;-64
2021/03/23 04:11:13;;;;;;;2.03;0.80;;;22.10;29.70;;;;;;5011356;28;20392;-63
2021/03/23 04:13:39;;;;;;;2.42;0.98;;;22.10;30.30;;;;;;5011282;28;20459;-63
2021/03/23 04:16:05;;;;;;;1.83;1.10;;;22.10;30.60;;;;;;5011699;28;20404;-63
2021/03/23 04:18:31;;;;;;;2.92;1.10;;;22.10;30.20;;;;;;5008895;28;20484;-61
2021/03/23 04:21:00;;;;;;;2.33;0.98;;;22.10;30.30;;;;;;5009591;28;20738;-62
2021/03/23 04:23:32;;;;;;;2.90;1.20;;;22.10;30.60;;;;;;4991850;28;20774;-62
2021/03/23 04:25:59;;;;;;;3.30;1.23;;;22.10;30.60;;;;;;4991991;28;20894;-61
2021/03/23 04:28:25;;;;;;;5.75;1.30;;;22.10;30.60;;;;;;4999150;28;20396;-62
2021/03/23 04:30:51;;;;;;;2.30;1.17;;;22.10;31.30;;;;;;5006118;28;20424;-61
2021/03/23 04:33:19;;;;;;;3.85;1.30;;;22.20;31.60;;;;;;5009854;28;20435;-63
2021/03/23 04:35:48;;;;;;;3.85;1.15;;;22.10;32.10;;;;;;4998974;28;20390;-63
2021/03/23 04:38:18;;;;;;;3.60;1.40;;;22.20;32.10;;;;;;4997290;28;20452;-63
2021/03/23 04:40:45;;;;;;;2.95;1.25;;;22.20;32.80;;;;;;5012619;28;20391;-63
2021/03/23 04:43:16;;;;;;;4.78;1.20;;;22.10;32.20;;;;;;4998118;28;20422;-64
2021/03/23 04:45:41;;;;;;;4.07;1.40;;;22.20;32.70;;;;;;4998541;28;20386;-63
2021/03/23 04:48:07;;;;;;;4.25;1.33;;;22.10;32.80;;;;;;4998269;28;20416;-63
2021/03/23 04:50:33;;;;;;;3.78;1.27;;;22.20;33.00;;;;;;4997652;28;20382;-62
2021/03/23 04:52:58;;;;;;;3.03;1.13;;;22.20;31.90;;;;;;4997402;28;20399;-63
2021/03/23 04:55:24;;;;;;;4.13;1.20;;;22.10;32.20;;;;;;4998214;28;20390;-63
2021/03/23 04:57:50;;;;;;;1.90;1.10;;;22.10;32.00;;;;;;4998231;28;20390;-62
2021/03/23 05:00:16;;;;;;;3.35;1.10;;;22.10;31.60;;;;;;5013241;28;20405;-64
2021/03/23 05:02:42;;;;;;;2.97;1.20;;;22.10;31.60;;;;;;4997733;28;20414;-63
2021/03/23 05:05:08;;;;;;;7.30;1.27;;;22.10;31.40;;;;;;4997803;28;20395;-63
2021/03/23 05:07:35;;;;;;;8.02;1.20;;;22.10;31.60;;;;;;4997974;28;20898;-63
2021/03/23 05:10:00;;;;;;;3.50;1.35;;;22.00;31.70;;;;;;4997774;28;20481;-64
2021/03/23 05:12:26;;;;;;;5.85;1.10;;;22.10;31.80;;;;;;4997483;28;20509;-63
2021/03/23 05:14:52;;;;;;;3.17;1.13;;;22.00;31.50;;;;;;4997206;28;20448;-63
2021/03/23 05:17:17;;;;;;;3.28;1.15;;;22.00;31.30;;;;;;4997780;28;20394;-63
2021/03/23 05:19:43;;;;;;;3.63;1.27;;;22.00;31.20;;;;;;4997599;28;20390;-63
2021/03/23 05:22:09;;;;;;;4.70;1.10;;;22.00;31.50;;;;;;5013043;28;20418;-63
2021/03/23 05:24:35;;;;;;;3.22;1.13;;;22.00;31.10;;;;;;4997737;28;20393;-60
2021/03/23 05:27:01;;;;;;;3.80;1.50;;;22.00;30.90;;;;;;4996970;28;20886;-60
2021/03/23 05:29:27;;;;;;;3.90;1.23;;;21.90;31.00;;;;;;4997517;28;20497;-60
2021/03/23 05:31:52;;;;;;;4.90;1.50;;;21.90;31.00;;;;;;5009997;28;20900;-61
2021/03/23 05:34:18;;;;;;;3.93;1.30;;;21.90;31.00;;;;;;5017139;28;20388;-65
2021/03/23 05:36:44;;;;;;;4.03;1.48;;;21.90;31.00;;;;;;5016610;28;20404;-60
2021/03/23 05:39:11;;;;;;;3.97;1.20;;;21.90;30.70;;;;;;5017136;28;20439;-60
2021/03/23 05:42:08;;;;;;;4.10;1.30;;;21.90;30.80;;;;;;5015512;28;20408;-60
2021/03/23 05:45:07;;;;;;;4.03;1.30;;;21.80;30.60;;;;;;5013715;28;20765;-60
2021/03/23 05:47:43;;;;;;;2.90;1.20;;;21.80;30.60;;;;;;5014365;28;20389;-60
2021/03/23 05:50:24;;;;;;;4.32;1.38;;;21.80;30.40;;;;;;5014256;28;20393;-60
2021/03/23 05:53:04;;;;;;;3.20;1.30;;;21.80;30.50;;;;;;5013873;28;20420;-63
2021/03/23 05:55:41;;;;;;;3.47;1.45;;;21.80;30.50;;;;;;5013843;28;20497;-60
2021/03/23 05:58:29;;;;;;;4.03;1.35;;;21.80;30.60;;;;;;5014476;28;20454;-60
2021/03/23 06:01:01;;;;;;;5.10;1.60;;;21.80;31.00;;;;;;5011319;28;20401;-61
2021/03/23 06:03:41;;;;;;;6.03;1.65;;;21.80;31.00;;;;;;5013851;28;20421;-60
2021/03/23 06:06:49;;;;;;;6.80;1.70;;;21.80;31.10;;;;;;5012531;28;20385;-60
2021/03/23 06:09:16;;;;;;;5.10;1.70;;;21.70;31.20;;;;;;5011241;28;20407;-60
2021/03/23 06:11:42;;;;;;;5.28;2.05;;;21.70;31.20;;;;;;5012716;28;20389;-60
2021/03/23 06:14:26;;;;;;;4.30;1.63;;;21.70;31.40;;;;;;5013362;28;20415;-60
2021/03/23 06:17:07;;;;;;;3.40;1.50;;;21.70;31.30;;;;;;5013169;28;20397;-61
2021/03/23 06:20:12;;;;;;;3.92;1.63;;;21.70;31.60;;;;;;5013449;28;20480;-60
2021/03/23 06:22:46;;;;;;;4.05;1.60;;;21.70;31.40;;;;;;5012887;28;20432;-60
2021/03/23 06:25:18;;;;;;;4.95;1.50;;;21.70;31.40;;;;;;5012018;28;20543;-60
2021/03/23 06:27:53;;;;;;;3.60;1.77;;;21.70;31.20;;;;;;5012666;28;20397;-60
2021/03/23 06:30:34;;;;;;;3.17;1.98;;;21.70;31.20;;;;;;5012744;28;20388;-60
2021/03/23 06:33:00;;;;;;;4.30;1.80;;;21.70;31.30;;;;;;5012929;28;20400;-60
2021/03/23 06:35:36;;;;;;;3.88;1.70;;;21.70;31.20;;;;;;5013343;28;20396;-61
2021/03/23 06:38:03;;;;;;;4.65;1.77;;;21.70;31.20;;;;;;5012794;28;20377;-61
2021/03/23 06:40:33;;;;;;;3.92;1.70;;;21.70;31.10;;;;;;5013251;28;20416;-60
2021/03/23 06:43:25;;;;;;;3.37;1.80;;;21.70;31.10;;;;;;5013028;28;20417;-60
2021/03/23 06:46:02;;;;;;;4.72;2.05;;;21.70;31.00;;;;;;5013336;28;20869;-63
2021/03/23 06:48:30;;;;;;;4.25;1.73;;;21.70;30.90;;;;;;5013227;28;20412;-64
2021/03/23 06:51:28;;;;;;;5.07;2.00;;;21.70;30.80;;;;;;5012740;28;20493;-63
2021/03/23 06:53:54;;;;;;;4.10;1.90;;;21.60;30.70;;;;;;4990281;28;20886;-62
2021/03/23 06:56:27;;;;;;;3.40;1.92;;;21.60;30.70;;;;;;5011876;28;20392;-62
2021/03/23 06:59:17;;;;;;;2.80;1.73;;;21.60;30.70;;;;;;5012654;28;20404;-63
2021/03/23 07:01:48;;;;;;;3.70;1.85;;;21.60;30.70;;;;;;5007570;28;20417;-63
2021/03/23 07:04:29;;;;;;;3.78;2.03;;;21.60;30.70;;;;;;5012870;28;20489;-62
2021/03/23 07:07:19;;;;;;;3.17;1.90;;;21.60;30.70;;;;;;5012315;28;20452;-63
2021/03/23 07:09:57;;;;;;;4.00;2.00;;;21.60;30.70;;;;;;5012822;28;20920;-64
2021/03/23 07:12:45;;;;;;;4.57;1.83;;;21.50;30.70;;;;;;5012181;28;20388;-64
2021/03/23 07:15:28;;;;;;;4.35;1.83;;;21.50;31.00;;;;;;5012696;28;20420;-64
2021/03/23 07:18:06;;;;;;;4.50;1.77;;;21.60;31.50;;;;;;5012350;28;20388;-63
2021/03/23 07:20:38;;;;;;;4.40;2.03;;;21.60;31.60;;;;;;5011365;28;20475;-64
2021/03/23 07:23:28;;;;;;;4.55;1.90;;;21.50;31.50;;;;;;5012349;28;20998;-63
2021/03/23 07:25:55;;;;;;;3.92;2.10;;;21.50;31.40;;;;;;5006806;28;20420;-62
2021/03/23 07:28:35;;;;;;;4.13;2.00;;;21.50;31.40;;;;;;5012369;28;20397;-63
2021/03/23 07:31:12;;;;;;;5.78;2.00;;;21.50;31.40;;;;;;5012271;28;20486;-63
2021/03/23 07:34:06;;;;;;;4.22;1.77;;;21.50;31.40;;;;;;5012325;28;20400;-63
2021/03/23 07:36:40;;;;;;;3.03;1.80;;;21.40;31.30;;;;;;5012439;28;20385;-63
2021/03/23 07:39:29;;;;;;;3.08;1.52;;;21.50;31.40;;;;;;5011995;28;20412;-63
2021/03/23 07:42:05;;;;;;;3.05;1.80;;;21.50;31.60;;;;;;5012290;28;20432;-63
2021/03/23 07:44:33;;;;;;;3.15;1.60;;;21.50;31.50;;;;;;5012446;28;20443;-63
2021/03/23 07:47:05;;;;;;;3.72;1.90;;;21.50;31.60;;;;;;5011630;28;20377;-63
2021/03/23 07:49:39;;;;;;;2.85;1.58;;;21.50;31.70;;;;;;5012247;28;20420;-63
2021/03/23 07:52:37;;;;;;;4.55;1.50;;;21.40;31.60;;;;;;5010863;28;20492;-63
2021/03/23 07:55:12;;;;;;;3.83;1.67;;;21.40;31.80;;;;;;5002849;28;20662;-63
2021/03/23 07:58:03;;;;;;;3.78;1.77;;;21.40;31.80;;;;;;5012019;28;20400;-63
2021/03/23 08:00:40;;;;;;;5.40;1.90;;;21.40;32.00;;;;;;5012027;28;20447;-63
2021/03/23 08:03:42;;;;;;;5.38;1.75;;;21.40;32.20;;;;;;5011558;28;20424;-63
2021/03/23 08:06:22;;;;;;;4.80;2.00;;;21.40;32.20;;;;;;5011103;28;20753;-63
2021/03/23 08:09:07;;;;;;;4.95;1.83;;;21.40;32.20;;;;;;5011507;28;20399;-63
2021/03/23 08:11:44;;;;;;;4.55;1.80;;;21.30;31.80;;;;;;5011693;28;20381;-62
2021/03/23 08:14:31;;;;;;;4.78;1.80;;;21.30;31.90;;;;;;5011869;28;20415;-63
2021/03/23 08:17:20;;;;;;;4.45;1.92;;;21.30;32.20;;;;;;5011284;28;20392;-63
2021/03/23 08:19:51;;;;;;;4.90;1.67;;;21.30;32.30;;;;;;5011522;28;20749;-63
2021/03/23 08:22:55;;;;;;;4.20;1.60;;;21.30;32.20;;;;;;5012156;28;20417;-62
2021/03/23 08:25:40;;;;;;;3.10;1.60;;;21.20;31.90;;;;;;5011732;28;20428;-63
2021/03/23 08:28:18;;;;;;;2.90;1.50;;;21.30;31.90;;;;;;5011409;28;20397;-63
2021/03/23 08:30:59;;;;;;;4.75;1.70;;;21.20;31.90;;;;;;5011469;28;20400;-63
2021/03/23 08:33:51;;;;;;;2.85;1.40;;;21.20;31.90;;;;;;5010231;28;20416;-63
2021/03/23 08:36:33;;;;;;;3.88;1.75;;;21.20;31.80;;;;;;5010333;28;20447;-63
2021/03/23 08:39:18;;;;;;;3.33;1.60;;;21.20;31.70;;;;;;5011187;28;20407;-63
2021/03/23 08:41:53;;;;;;;3.15;1.40;;;21.20;31.70;;;;;;5011621;28;20452;-63
2021/03/23 08:44:34;;;;;;;3.17;1.52;;;21.20;31.70;;;;;;5011646;28;20388;-63
2021/03/23 08:47:23;;;;;;;2.70;1.60;;;21.20;31.60;;;;;;5011120;28;20392;-63
2021/03/23 08:49:50;;;;;;;3.20;1.58;;;21.20;31.60;;;;;;5011203;28;20480;-64
2021/03/23 08:52:37;;;;;;;2.95;1.50;;;21.20;31.40;;;;;;5011009;28;20392;-63
2021/03/23 08:55:28;;;;;;;4.50;1.38;;;21.20;31.50;;;;;;5010925;28;20392;-63
2021/03/23 08:58:03;;;;;;;3.85;1.60;;;21.20;31.50;;;;;;5004022;28;20405;-63
2021/03/23 09:00:54;;;;;;;2.50;1.40;;;21.20;31.50;;;;;;5011522;28;20400;-63
2021/03/23 09:03:19;;;;;;;2.70;1.33;;;21.20;31.50;;;;;;5011306;28;20467;-63
2021/03/23 09:05:51;;;;;;;2.97;1.43;;;21.20;31.40;;;;;;5011321;28;20385;-63
2021/03/23 09:08:31;;;;;;;2.35;1.40;;;21.10;31.40;;;;;;5011322;28;20765;-63
2021/03/23 09:11:17;;;;;;;3.22;1.63;;;21.10;32.00;;;;;;5009569;28;20784;-62
2021/03/23 09:13:46;;;;;;;2.83;1.23;;;21.10;31.30;;;;;;5011231;28;20389;-62
2021/03/23 09:16:11;;;;;;;3.03;1.45;;;21.10;31.30;;;;;;5010693;28;20393;-63
2021/03/23 09:18:58;;;;;;;3.17;1.48;;;21.10;31.30;;;;;;5015029;28;20450;-63
2021/03/23 09:21:24;;;;;;;2.85;1.40;;;21.10;31.20;;;;;;5002700;28;20401;-63
2021/03/23 09:23:54;;;;;;;2.57;1.40;;;21.10;31.20;;;;;;5014985;28;20754;-63
2021/03/23 09:26:42;;;;;;;2.72;1.40;;;21.10;31.20;;;;;;5014893;28;20395;-63
2021/03/23 09:29:34;;;;;;;2.65;1.42;;;21.10;31.20;;;;;;5014600;28;20400;-63
2021/03/23 09:32:08;;;;;;;3.15;1.30;;;21.00;31.10;;;;;;5014727;28;20757;-63
2021/03/23 09:35:06;;;;;;;2.92;1.60;;;21.10;31.20;;;;;;5014829;28;20531;-63
2021/03/23 09:37:38;;;;;;;2.67;1.30;;;21.00;31.10;;;;;;5014721;28;20470;-63
2021/03/23 09:40:19;;;;;;;3.25;1.40;;;21.00;31.00;;;;;;5014651;28;20405;-63
2021/03/23 09:43:05;;;;;;;2.20;1.35;;;21.00;31.00;;;;;;5014249;28;20420;-62
2021/03/23 09:45:58;;;;;;;1.90;1.30;;;21.00;31.00;;;;;;5014436;28;20753;-63
2021/03/23 09:48:47;;;;;;;1.98;1.20;;;21.00;31.10;;;;;;5009434;28;20396;-63
2021/03/23 09:51:41;;;;;;;2.67;1.30;;;21.00;31.10;;;;;;5014148;28;20845;-63
2021/03/23 09:54:36;;;;;;;2.47;1.40;;;20.90;31.00;;;;;;5014373;28;20393;-63
2021/03/23 09:57:03;;;;;;;2.47;1.20;;;21.00;31.00;;;;;;4998714;28;20466;-63
2021/03/23 09:59:33;;;;;;;2.20;1.30;;;21.00;31.00;;;;;;5014237;28;20396;-63
2021/03/23 10:02:31;;;;;;;2.10;1.20;;;21.00;31.00;;;;;;5014082;28;20921;-63
2021/03/23 10:05:17;;;;;;;2.50;1.40;;;20.90;30.90;;;;;;5012171;28;20901;-63
2021/03/23 10:07:43;;;;;;;2.22;1.15;;;21.00;30.90;;;;;;5013545;28;20393;-64
2021/03/23 10:10:27;;;;;;;2.58;1.40;;;20.90;30.80;;;;;;5013905;28;20392;-63
2021/03/23 10:12:55;;;;;;;2.47;1.20;;;20.90;30.90;;;;;;5013352;28;20472;-62
2021/03/23 10:15:32;;;;;;;2.47;1.20;;;20.90;30.80;;;;;;5013978;28;20400;-63
2021/03/23 10:18:14;;;;;;;1.80;1.20;;;20.90;30.80;;;;;;5013808;28;20813;-63
2021/03/23 10:20:40;;;;;;;2.38;1.30;;;20.90;30.90;;;;;;5013581;28;20389;-63
2021/03/23 10:23:06;;;;;;;2.07;1.23;;;20.90;30.90;;;;;;5013195;28;20949;-63
2021/03/23 10:25:32;;;;;;;2.38;1.20;;;20.90;30.80;;;;;;5013739;28;20388;-63
2021/03/23 10:28:05;;;;;;;2.20;1.38;;;20.90;30.80;;;;;;5012808;28;20761;-63
2021/03/23 10:30:36;;;;;;;2.05;1.20;;;20.90;30.90;;;;;;5013630;28;20952;-63
2021/03/23 10:33:25;;;;;;;2.45;1.20;;;20.90;30.90;;;;;;5012976;28;20877;-63
2021/03/23 10:36:03;;;;;;;2.03;1.23;;;20.90;30.80;;;;;;5013012;28;20865;-62
2021/03/23 10:38:28;;;;;;;1.67;1.15;;;20.90;30.90;;;;;;5013394;28;20448;-63
2021/03/23 10:40:59;;;;;;;2.53;1.10;;;20.90;30.80;;;;;;5012926;28;20389;-62
2021/03/23 10:43:38;;;;;;;1.90;1.20;;;20.90;30.90;;;;;;5013338;28;20499;-62
2021/03/23 10:46:34;;;;;;;1.85;1.00;;;20.90;30.80;;;;;;5013322;28;20397;-63
2021/03/23 10:49:26;;;;;;;2.60;1.40;;;20.90;31.30;;;;;;5008121;28;20442;-62
2021/03/23 10:52:25;;;;;;;2.20;1.40;;;20.90;30.80;;;;;;5013154;28;20397;-62
2021/03/23 10:55:29;;;;;;;2.50;1.20;;;20.90;30.80;;;;;;5012960;28;20883;-62
2021/03/23 10:58:19;;;;;;;2.33;1.20;;;20.90;30.80;;;;;;5010908;28;20415;-63
2021/03/23 11:00:47;;;;;;;3.58;1.55;;;20.90;30.70;;;;;;5011783;28;20818;-62
2021/03/23 11:03:18;;;;;;;2.05;1.25;;;20.80;30.60;;;;;;5012645;28;20991;-62
2021/03/23 11:05:47;;;;;;;7.23;1.80;;;20.80;30.70;;;;;;5013031;28;20401;-63
2021/03/23 11:08:14;;;;;;;11.18;2.60;;;20.80;30.80;;;;;;5012878;28;20403;-62
2021/03/23 11:10:58;;;;;;;6.97;1.90;;;20.80;31.10;;;;;;5012663;28;20466;-61
2021/03/23 11:13:24;;;;;;;5.32;1.63;;;20.80;31.30;;;;;;5012834;28;20412;-62
2021/03/23 11:15:53;;;;;;;6.18;1.85;;;20.80;31.20;;;;;;5013041;28;20400;-63
2021/03/23 11:18:22;;;;;;;13.85;2.30;;;20.90;32.30;;;;;;5012626;28;20393;-63
2021/03/23 11:20:51;;;;;;;12.38;2.47;;;20.90;31.70;;;;;;5012603;28;20404;-62
2021/03/23 11:23:41;;;;;;;11.15;2.10;;;20.90;31.60;;;;;;5012381;28;20428;-62
2021/03/23 11:26:13;;;;;;;11.35;1.98;;;20.90;31.50;;;;;;5012651;28;20749;-63
2021/03/23 11:28:39;;;;;;;12.98;2.00;;;20.90;31.60;;;;;;5012964;28;20389;-63
2021/03/23 11:31:07;;;;;;;10.48;2.30;;;20.90;31.50;;;;;;5012045;28;20747;-62
2021/03/23 11:33:33;;;;;;;11.10;2.08;;;20.90;31.50;;;;;;5012428;28;20417;-62
2021/03/23 11:36:00;;;;;;;7.53;1.90;;;20.90;31.70;;;;;;5012452;28;20719;-62
2021/03/23 11:38:27;;;;;;;8.65;2.10;;;20.90;31.70;;;;;;5012439;28;20420;-63
2021/03/23 11:40:54;;;;;;;6.88;1.80;;;20.90;31.70;;;;;;5012103;28;20412;-63
2021/03/23 11:43:31;;;;;;;6.50;1.63;;;20.90;31.40;;;;;;5012274;28;20904;-62
2021/03/23 11:46:10;;;;;;;8.35;1.83;;;20.90;31.90;;;;;;5012197;28;20392;-62
2021/03/23 11:48:37;;;;;;;7.72;1.58;;;20.90;31.70;;;;;;5012031;28;20425;-62
2021/03/23 11:51:04;;;;;;;5.45;1.58;;;20.90;31.80;;;;;;5011634;28;20393;-62
2021/03/23 11:53:30;;;;;;;4.30;1.70;;;20.90;32.00;;;;;;5012264;28;20381;-63
2021/03/23 11:55:56;;;;;;;4.25;1.52;;;20.90;31.90;;;;;;5012051;28;20468;-63
2021/03/23 11:58:22;;;;;;;5.20;1.70;;;20.90;31.90;;;;;;5012086;28;20389;-63
2021/03/23 12:00:49;;;;;;;4.35;1.70;;;20.90;31.90;;;;;;5012051;28;20455;-63
2021/03/23 12:03:16;;;;;;;5.85;1.45;;;20.90;31.80;;;;;;5011582;28;20446;-63
2021/03/23 12:05:42;;;;;;;3.72;1.40;;;20.90;32.20;;;;;;5012058;28;20443;-64
2021/03/23 12:08:23;;;;;;;4.63;1.45;;;20.90;31.60;;;;;;5011982;28;20389;-63
2021/03/23 12:11:16;;;;;;;3.50;1.30;;;20.90;31.60;;;;;;5011938;28;20715;-62
2021/03/23 12:13:55;;;;;;;3.75;1.25;;;20.90;31.60;;;;;;5011973;28;20472;-63
2021/03/23 12:16:29;;;;;;;4.68;1.23;;;20.90;31.50;;;;;;5011850;28;20439;-63
2021/03/23 12:19:02;;;;;;;4.28;1.45;;;20.90;31.50;;;;;;5011543;28;20404;-63
2021/03/23 12:21:29;;;;;;;3.83;1.50;;;20.90;31.40;;;;;;5011797;28;20477;-63
2021/03/23 12:23:55;;;;;;;4.03;1.52;;;21.10;31.30;;;;;;5011629;28;20482;-63
2021/03/23 12:26:21;;;;;;;3.33;1.42;;;21.10;31.10;;;;;;5011770;28;20392;-63
2021/03/23 12:28:47;;;;;;;3.53;1.27;;;21.20;30.90;;;;;;5011748;28;20730;-63
2021/03/23 12:31:14;;;;;;;4.95;1.27;;;21.30;30.80;;;;;;5010859;28;20392;-62
2021/03/23 12:33:40;;;;;;;4.95;1.40;;;21.30;30.70;;;;;;5011746;28;20417;-63
2021/03/23 12:36:07;;;;;;;3.10;1.27;;;21.40;30.60;;;;;;5011729;28;20443;-63
2021/03/23 12:38:40;;;;;;;3.85;1.45;;;21.40;30.50;;;;;;5011617;28;20401;-63
2021/03/23 12:41:09;;;;;;;3.50;1.30;;;21.40;30.40;;;;;;5011024;28;20386;-62
2021/03/23 12:43:34;;;;;;;3.28;1.40;;;21.40;30.20;;;;;;5011531;28;20424;-63
2021/03/23 12:46:00;;;;;;;3.72;1.45;;;21.50;30.30;;;;;;5011586;28;20793;-63
2021/03/23 12:48:26;;;;;;;2.77;1.27;;;21.50;30.20;;;;;;5011576;28;20393;-63
2021/03/23 12:50:53;;;;;;;3.35;1.30;;;21.50;30.10;;;;;;5011711;28;20388;-62
2021/03/23 12:53:20;;;;;;;3.67;1.50;;;21.50;30.10;;;;;;5015243;28;20401;-63
2021/03/23 12:55:51;;;;;;;3.15;1.50;;;21.50;30.00;;;;;;5015449;28;20376;-63
2021/03/23 12:58:29;;;;;;;3.50;1.40;;;21.60;30.00;;;;;;5015387;28;20395;-63
2021/03/23 13:00:55;;;;;;;3.23;1.57;;;21.60;30.00;;;;;;5015081;28;20776;-63
2021/03/23 13:03:21;;;;;;;3.75;1.50;;;21.60;30.10;;;;;;5012873;28;20429;-63
2021/03/23 13:05:50;;;;;;;2.83;1.40;;;21.60;30.00;;;;;;5015346;28;20749;-63
2021/03/23 13:08:28;;;;;;;5.70;1.65;;;21.60;30.10;;;;;;5015196;28;20384;-63
2021/03/23 13:10:58;;;;;;;3.20;1.60;;;21.60;30.00;;;;;;5014981;28;20389;-62
2021/03/23 13:13:29;;;;;;;3.73;1.60;;;21.70;30.00;;;;;;5014960;28;20892;-63